createdAt,value
2017-03-15T00:00:02.981Z,9.56
2017-03-15T00:15:02.359Z,9.53
2017-03-15T00:30:02.312Z,9.5
2017-03-15T00:45:02.643Z,9.47
2017-03-15T01:00:02.336Z,9.45
2017-03-15T01:15:03.269Z,9.4
2017-03-15T01:30:03.385Z,9.26
2017-03-15T01:45:03.072Z,9.06
2017-03-15T02:00:02.796Z,9.02
2017-03-15T02:15:03.330Z,8.98
2017-03-15T02:30:03.272Z,8.98
2017-03-15T02:45:02.966Z,9.01
2017-03-15T03:00:02.672Z,9
2017-03-15T03:15:02.506Z,8.88
2017-03-15T03:30:02.930Z,8.78
2017-03-15T03:45:02.575Z,8.7
2017-03-15T04:00:02.740Z,8.71
2017-03-15T04:15:03.057Z,8.64
2017-03-15T04:30:03.117Z,8.58
2017-03-15T04:45:02.755Z,8.63
2017-03-15T05:00:02.506Z,8.52
2017-03-15T05:15:03.400Z,8.41
2017-03-15T05:30:02.365Z,8.3
2017-03-15T05:45:07.978Z,8.09
2017-03-15T06:00:02.801Z,7.94
2017-03-15T06:15:02.698Z,7.87
2017-03-15T06:30:03.155Z,7.96
2017-03-15T06:45:03.094Z,8.07
2017-03-15T07:00:02.807Z,8.15
2017-03-15T07:15:03.480Z,8.26
2017-03-15T07:30:02.339Z,8.33
2017-03-15T07:45:03.142Z,8.43
2017-03-15T08:00:02.794Z,8.58
2017-03-15T08:15:03.056Z,8.82
2017-03-15T08:30:03.301Z,8.87
2017-03-15T08:45:04.556Z,8.9
2017-03-15T09:00:03.156Z,9.21
2017-03-15T09:15:02.849Z,9.41
2017-03-15T09:30:03.075Z,9.56
2017-03-15T09:45:02.717Z,9.75
2017-03-15T10:00:02.645Z,10.04
2017-03-15T10:15:02.308Z,10.11
2017-03-15T10:30:03.232Z,12.41
2017-03-15T10:45:02.889Z,13.88
2017-03-15T11:00:02.816Z,13.82
2017-03-15T11:15:07.840Z,13.04
2017-03-15T11:30:02.742Z,12.36
2017-03-15T11:45:03.904Z,13.07
2017-03-15T12:00:02.561Z,13.64
2017-03-15T12:15:03.471Z,13.29
2017-03-15T12:30:02.714Z,12.53
2017-03-15T12:45:02.535Z,12.25
2017-03-15T13:00:03.198Z,12.19
2017-03-15T13:15:03.207Z,12.49
2017-03-15T13:30:02.334Z,12.17
2017-03-15T13:45:03.023Z,12.22
2017-03-15T14:00:07.921Z,11.99
2017-03-15T14:15:02.563Z,11.64
2017-03-15T14:30:02.775Z,11.54
2017-03-15T14:45:02.439Z,12.01
2017-03-15T15:00:03.192Z,11.82
2017-03-15T15:15:02.534Z,11.77
2017-03-15T15:30:02.773Z,11.64
2017-03-15T15:45:02.515Z,11.94
2017-03-15T16:00:03.229Z,11.82
2017-03-15T16:15:02.868Z,11.59
2017-03-15T16:30:02.878Z,11.54
2017-03-15T16:45:02.731Z,11.34
2017-03-15T17:00:02.743Z,10.99
2017-03-15T17:15:03.263Z,10.72
2017-03-15T17:30:03.419Z,10.48
2017-03-15T17:45:03.126Z,10.24
2017-03-15T18:00:02.934Z,10.06
2017-03-15T18:15:02.633Z,9.92
2017-03-15T18:30:02.549Z,9.76
2017-03-15T18:45:03.415Z,9.63
2017-03-15T19:00:03.084Z,9.47
2017-03-15T19:15:03.530Z,9.33
2017-03-15T19:30:02.711Z,9.2
2017-03-15T19:45:02.397Z,9.09
2017-03-15T20:00:03.283Z,8.93
2017-03-15T20:15:02.334Z,8.79
2017-03-15T20:30:03.273Z,8.71
2017-03-15T20:45:02.733Z,8.58
2017-03-15T21:00:02.487Z,8.41
2017-03-15T21:15:02.942Z,8.18
2017-03-15T21:30:02.821Z,7.98
2017-03-15T21:45:02.477Z,7.76
2017-03-15T22:00:03.405Z,7.56
2017-03-15T22:15:02.355Z,7.25
2017-03-15T22:30:03.308Z,6.97
2017-03-15T22:45:03.343Z,6.78
2017-03-15T23:00:03.078Z,6.54
2017-03-15T23:15:03.349Z,6.39
2017-03-15T23:30:03.208Z,6.2
2017-03-15T23:45:03.022Z,5.99
